Flight Track Log - Related Links

Times and Time Zones

All times are in EDT time to prevent confusion due to time zone crossing. See the F-GSPR flight status page for this flight to view local times or setup timezone preferences in your user account.

Time Position Orientation Groundspeed Altitude Reporting Facility
EDT Latitude Longitude Course Direction KTS MPH feet Rate Location/Type
Fri 06:11:10 AM 48.9990 2.5670 264° West 12 14  Level FlightAware ADS-B
Fri 06:11:30 AM 48.9990 2.5650 270° West 16 18 206 Level FlightAware ADS-B
Fri 06:11:40 AM 48.9990 2.5640 270° West 17 20 214 Level FlightAware ADS-B
Fri 06:14:00 AM 48.7252 2.6165 173° South  Level Estimated
Fri 06:15:00 AM 48.6079 2.6388 173° South  Level Estimated
Fri 06:15:10 AM 48.9970 2.5580 173° South 4 5  Level FlightAware ADS-B
Fri 06:17:00 AM 48.7819 2.5993 173° South  Level Estimated
Fri 06:17:35 AM 48.9960 2.5580 173° South 7 8  Level FlightAware ADS-B
Fri 06:17:45 AM 48.9960 2.5590 90° East 5 6 919 Level FlightAware ADS-B
Fri 06:18:15 AM 48.9960 2.5610 90° East 39 45 1,010 Level FlightAware ADS-B
Fri 06:18:48 AM 48.9970 2.5730 83° East 61 70 1,437 Level FlightAware ADS-B
Fri 06:19:26 AM 49.0000 2.6380 86° East 183 211 1,700 2,538 Climbing FlightAware ADS-B
Fri 06:19:40 AM 49.0010 2.6570 85° East 181 208 2,200 1,696 Climbing FlightAware ADS-B
Fri 06:20:12 AM 49.0030 2.6980 86° East 188 216 3,000 1,500 Climbing FlightAware ADS-B
Fri 06:20:40 AM 49.0050 2.7350 85° East 192 221 3,700 1,038 Climbing FlightAware ADS-B
Fri 06:21:04 AM 49.0070 2.7690 85° East 221 254 3,900 656 Climbing FlightAware ADS-B
Fri 06:21:44 AM 49.0050 2.8380 93° East 259 298 4,400 818 Climbing FlightAware ADS-B
Fri 06:22:10 AM 48.9970 2.8870 104° East 283 326 4,800 1,393 Climbing FlightAware ADS-B
Fri 06:22:40 AM 48.9820 2.9420 113° Southeast 283 326 5,700 1,714 Climbing FlightAware ADS-B
Fri 06:22:52 AM 48.9690 2.9540 149° Southeast 278 320 6,000 1,750 Climbing FlightAware ADS-B
Fri 06:23:04 AM 48.9550 2.9570 172° South 268 308 6,400 1,909 Climbing FlightAware ADS-B
Fri 06:23:36 AM 48.9250 2.9250 215° Southwest 260 299 7,400 1,932 Climbing FlightAware ADS-B
Fri 06:24:03 AM 48.9100 2.8830 241° Southwest 262 302 8,300 2,000 Climbing FlightAware ADS-B
Fri 06:24:15 AM 48.9030 2.8640 241° Southwest 264 304 8,700 2,000 Climbing FlightAware ADS-B
Fri 06:24:45 AM 48.8840 2.8110 241° Southwest 265 305 9,700 1,565 Climbing FlightAware ADS-B
Fri 06:25:24 AM 48.8600 2.7490 240° Southwest 285 328 10,500 1,037 Climbing FlightAware ADS-B
Fri 06:26:06 AM 48.8320 2.6690 242° Southwest 319 367 11,100 1,636 Climbing FlightAware ADS-B
Fri 06:26:52 AM 48.8010 2.5820 242° Southwest 319 367 12,900 2,612 Climbing FlightAware ADS-B
Fri 06:27:31 AM 48.7720 2.5020 241° Southwest 318 366 14,800 2,560 Climbing FlightAware ADS-B
Fri 06:28:07 AM 48.7480 2.4350 242° Southwest 324 373 16,100 2,104 Climbing FlightAware ADS-B
Fri 06:28:48 AM 48.7040 2.3630 227° Southwest 333 383 17,500 1,976 Climbing FlightAware ADS-B
Fri 06:29:32 AM 48.6440 2.3100 210° Southwest 343 395 18,900 1,891 Climbing FlightAware ADS-B
Fri 06:30:20 AM 48.5780 2.2530 210° Southwest 350 403 20,400 1,364 Climbing FlightAware ADS-B
Fri 06:31:00 AM 48.5130 2.2270 195° South 380 437 20,900 723 Climbing FlightAware ADS-B
Fri 06:31:43 AM 48.4390 2.2310 178° South 409 471 21,400 1,129 Climbing FlightAware ADS-B
Fri 06:32:25 AM 48.3510 2.2390 177° South 422 486 22,500 1,571 Climbing FlightAware ADS-B
Fri 06:33:07 AM 48.2700 2.2550 173° South 432 497 23,600 1,535 Climbing FlightAware ADS-B
Fri 06:33:51 AM 48.1810 2.2780 170° South 441 507 24,700 1,429 Climbing FlightAware ADS-B
Fri 06:34:31 AM 48.1010 2.3000 170° South 446 513 25,600 1,412 Climbing FlightAware ADS-B
Fri 06:35:16 AM 48.0100 2.3240 170° South 451 519 26,700 1,373 Climbing FlightAware ADS-B
Fri 06:35:54 AM 47.9310 2.3450 170° South 456 525 27,500 1,233 Climbing FlightAware ADS-B
Fri 06:36:29 AM 47.8590 2.3640 170° South 460 529 28,200 1,215 Climbing FlightAware ADS-B
Fri 06:37:13 AM 47.7670 2.3880 170° South 465 535 29,100 1,143 Climbing FlightAware ADS-B
Fri 06:37:53 AM 47.6810 2.4110 170° South 469 540 29,800 1,013 Climbing FlightAware ADS-B
Fri 06:38:30 AM 47.6140 2.4280 170° South 472 543 30,400 1,704 Climbing FlightAware ADS-B
Fri 06:39:14 AM 47.5090 2.4550 170° South 458 527 32,100 1,604 Climbing FlightAware ADS-B
Fri 06:40:11 AM 47.3900 2.4850 170° South 460 529 33,100 1,250 Climbing FlightAware ADS-B
Fri 06:40:50 AM 47.3090 2.5060 170° South 455 524 34,100 1,367 Climbing FlightAware ADS-B
Fri 06:41:30 AM 47.2380 2.5240 170° South 452 520 34,900 659 Climbing FlightAware ADS-B
Fri 06:42:12 AM 47.1570 2.5450 170° South 451 519 35,000 73 Climbing FlightAware ADS-B
Fri 06:42:52 AM 47.0610 2.5690 170° South 443 510 35,000  Level FlightAware ADS-B
Fri 06:43:40 AM 46.9670 2.5930 170° South 35,000  Level FlightAware ADS-B
Fri 06:44:25 AM 46.8720 2.6170 170° South 457 526 35,000  Level FlightAware ADS-B
Fri 06:45:05 AM 46.7890 2.6380 170° South 456 525 35,000  Level FlightAware ADS-B
Fri 06:45:47 AM 46.6960 2.6610 170° South 456 525 35,000  Level FlightAware ADS-B
Fri 06:46:27 AM 46.6120 2.6820 170° South 457 526 35,000  Level FlightAware ADS-B
Fri 06:47:12 AM 46.5210 2.7040 171° South 457 526 35,000  Level FlightAware ADS-B
Fri 06:47:47 AM 46.4470 2.7230 170° South 458 527 35,000  Level FlightAware ADS-B
Fri 06:48:27 AM 46.3630 2.7430 171° South 459 528 35,000  Level FlightAware ADS-B
Fri 06:49:15 AM 46.2580 2.7690 170° South 460 529 35,000  Level FlightAware ADS-B
Fri 06:49:57 AM 46.1720 2.8020 165° South 465 535 35,000  Level FlightAware ADS-B
Fri 06:50:33 AM 46.0970 2.8350 163° South 466 536 35,000  Level FlightAware ADS-B
Fri 06:51:13 AM 46.0170 2.8710 163° South 468 539 35,000  Level FlightAware ADS-B
Fri 06:51:51 AM 45.9460 2.9020 163° South 466 536 35,000  Level FlightAware ADS-B
Fri 06:52:30 AM 45.8670 2.9370 163° South 458 527 35,000  Level FlightAware ADS-B
Fri 06:53:11 AM 45.7740 2.9780 163° South 466 536 35,000  Level FlightAware ADS-B
Fri 06:54:37 AM 45.5930 3.0570 163° South 469 540 35,000  Level FlightAware ADS-B
Fri 06:55:17 AM 45.5100 3.0930 163° South 470 541 35,000  Level FlightAware ADS-B
Fri 06:55:57 AM 45.4260 3.1280 164° South 470 541 35,000  Level FlightAware ADS-B
Fri 06:56:43 AM 45.3330 3.1680 163° South 472 543 35,000  Level FlightAware ADS-B
Fri 06:57:23 AM 45.2470 3.2030 164° South 472 543 35,000  Level FlightAware ADS-B
Fri 06:58:06 AM 45.1570 3.2400 164° South 474 545 35,000  Level FlightAware ADS-B
Fri 06:58:50 AM 45.0640 3.2790 163° South 476 548 35,000  Level FlightAware ADS-B
Fri 06:59:30 AM 44.9800 3.3200 161° South 476 548 35,000  Level FlightAware ADS-B
Fri 07:00:13 AM 44.8920 3.3640 160° South 477 549 35,000  Level FlightAware ADS-B
Fri 07:00:57 AM 44.8010 3.4070 161° South 476 548 35,000  Level FlightAware ADS-B
Fri 07:01:29 AM 44.7310 3.4400 161° South 477 549 35,000  Level FlightAware ADS-B
Fri 07:02:27 AM 44.6150 3.4950 161° South 478 550 35,000  Level FlightAware ADS-B
Fri 07:03:07 AM 44.5260 3.5360 162° South 480 552 35,000  Level FlightAware ADS-B
Fri 07:03:44 AM 44.4490 3.5720 162° South 478 550 35,000  Level FlightAware ADS-B
Fri 07:04:28 AM 44.3570 3.6160 161° South 479 551 35,000  Level FlightAware ADS-B
Fri 07:05:08 AM 44.2720 3.6560 161° South 478 550 35,000  Level FlightAware ADS-B
Fri 07:05:46 AM 44.1950 3.6920 161° South 476 548 35,000  Level FlightAware ADS-B
Fri 07:06:32 AM 44.0980 3.7370 162° South 477 549 35,000  Level FlightAware ADS-B
Fri 07:07:14 AM 44.0110 3.7780 161° South 479 551 35,000  Level FlightAware ADS-B
Fri 07:07:58 AM 43.9180 3.8220 161° South 479 551 35,000  Level FlightAware ADS-B
Fri 07:08:32 AM 43.8470 3.8550 161° South 481 554 35,000  Level FlightAware ADS-B
Fri 07:09:12 AM 43.7670 3.8920 162° South 481 554 35,000  Level FlightAware ADS-B
Fri 07:09:57 AM 43.6690 3.9380 161° South 481 554 35,000  Level FlightAware ADS-B
Fri 07:10:28 AM 43.6000 3.9690 162° South 478 550 35,000  Level FlightAware ADS-B
Fri 07:11:14 AM 43.5090 4.0160 159° South 477 549 35,000  Level FlightAware ADS-B
Fri 07:11:47 AM 43.4420 4.0450 163° South 474 545 35,000  Level FlightAware ADS-B
Fri 07:12:33 AM 43.3430 4.0890 162° South 477 549 35,000  Level FlightAware ADS-B
Fri 07:13:17 AM 43.2600 4.1480 153° Southeast 480 552 35,000  Level FlightAware ADS-B
Fri 07:13:57 AM 43.1900 4.1970 153° Southeast 480 552 35,000  Level FlightAware ADS-B
Fri 07:14:35 AM 43.1260 4.2430 152° Southeast 480 552 35,000  Level FlightAware ADS-B
Fri 07:15:20 AM 43.0120 4.3240 153° Southeast 483 556 35,000  Level FlightAware ADS-B
Fri 07:16:09 AM 42.9250 4.3860 152° Southeast 483 556 35,000  Level FlightAware ADS-B
Fri 07:16:53 AM 42.8440 4.4430 153° Southeast 485 558 35,000  Level FlightAware ADS-B
Fri 07:17:59 AM 42.7140 4.5330 153° Southeast 487 560 35,000  Level FlightAware ADS-B
Fri 07:18:37 AM 42.6500 4.5800 152° Southeast 487 560 35,000  Level FlightAware ADS-B
Fri 07:19:16 AM 42.5590 4.6410 154° Southeast 489 563 35,000  Level FlightAware ADS-B
Fri 07:20:19 AM 42.4240 4.7350 153° Southeast 491 565 35,000  Level FlightAware ADS-B
Fri 07:20:55 AM 42.3620 4.7780 153° Southeast 491 565 35,000  Level FlightAware ADS-B
Fri 07:21:44 AM 42.2560 4.8430 156° South 487 560 35,000  Level FlightAware ADS-B
Fri 07:22:34 AM 42.1500 4.9150 153° Southeast 488 562 35,000  Level FlightAware ADS-B
Fri 07:23:22 AM 42.0510 4.9800 154° Southeast 488 562 35,000  Level FlightAware ADS-B
Fri 07:24:18 AM 41.9230 5.0460 159° South 481 554 35,000  Level FlightAware ADS-B
Fri 07:24:58 AM 41.8380 5.0770 165° South 479 551 35,000  Level FlightAware ADS-B
Fri 07:25:38 AM 41.7530 5.1100 164° South 479 551 35,000  Level FlightAware ADS-B
Fri 07:26:18 AM 41.6660 5.1460 163° South 479 551 35,000  Level FlightAware ADS-B
Fri 07:26:58 AM 41.5860 5.1790 163° South 479 551 35,000  Level FlightAware ADS-B
Fri 07:27:38 AM 41.5010 5.2100 165° South 478 550 35,000  Level FlightAware ADS-B
Fri 07:28:18 AM 41.4120 5.2420 165° South 476 548 35,000  Level FlightAware ADS-B
Fri 07:29:18 AM 41.2860 5.2880 165° South 473 544 35,000  Level FlightAware ADS-B
Fri 07:29:56 AM 41.2080 5.3160 165° South 470 541 35,000  Level FlightAware ADS-B
Fri 07:30:42 AM 41.1210 5.3490 164° South 469 540 35,000  Level FlightAware ADS-B
Fri 07:31:18 AM 41.0340 5.3790 165° South 468 539 35,000  Level FlightAware ADS-B
Fri 07:32:10 AM 40.9340 5.4160 164° South 468 539 35,000  Level FlightAware ADS-B
Fri 07:32:46 AM 40.8710 5.4400 164° South 468 539 35,000  Level FlightAware ADS-B
Fri 07:33:50 AM 40.7240 5.4910 165° South 470 541 35,000  Level FlightAware ADS-B
Fri 07:34:26 AM 40.6600 5.5150 164° South 470 541 35,000  Level FlightAware ADS-B
Fri 07:35:14 AM 40.5750 5.5470 164° South 470 541 35,000  Level FlightAware ADS-B
Fri 07:35:50 AM 40.5110 5.5720 163° South 470 541 35,000  Level FlightAware ADS-B
Fri 07:36:38 AM 40.4260 5.6040 164° South 470 541 35,000  Level FlightAware ADS-B
Fri 07:37:20 AM 40.2770 5.6480 167° South 467 537 35,000  Level FlightAware ADS-B
Fri 07:38:00 AM 40.1930 5.6770 165° South 469 540 35,000  Level FlightAware ADS-B
Fri 07:38:43 AM 40.1100 5.7070 165° South 463 533 35,000  Level FlightAware ADS-B
Fri 07:39:23 AM 40.0220 5.7370 165° South 464 534 35,000  Level FlightAware ADS-B
Fri 07:40:05 AM 39.9380 5.7670 165° South 464 534 35,000  Level FlightAware ADS-B
Fri 07:40:48 AM 39.8440 5.7990 165° South 464 534 35,000  Level FlightAware ADS-B
Fri 07:41:29 AM 39.7570 5.8290 165° South 466 536 35,000  Level FlightAware ADS-B
Fri 07:42:13 AM 39.6670 5.8600 165° South 467 537 35,000  Level FlightAware ADS-B
Fri 07:42:53 AM 39.5790 5.8910 165° South 468 539 35,000  Level FlightAware ADS-B
Fri 07:43:39 AM 39.4810 5.9240 165° South 469 540 35,000  Level FlightAware ADS-B
Fri 07:44:18 AM 39.3970 5.9530 165° South 479 551 35,000  Level FlightAware ADS-B
Fri 07:44:59 AM 39.3090 5.9830 165° South 480 552 35,000  Level FlightAware ADS-B
Fri 07:45:38 AM 39.2240 6.0120 165° South 482 555 35,000  Level FlightAware ADS-B
Fri 07:46:21 AM 39.1320 6.0380 168° South 472 543 35,000  Level FlightAware ADS-B
Fri 07:47:05 AM 39.0350 6.0600 170° South 473 544 35,000  Level FlightAware ADS-B
Fri 07:47:50 AM 38.9360 6.0820 170° South 475 547 35,000  Level FlightAware ADS-B
Fri 07:48:31 AM 38.8470 6.1000 171° South 484 557 35,000  Level FlightAware ADS-B
Fri 07:49:13 AM 38.7580 6.1180 171° South 485 558 35,000  Level FlightAware ADS-B
Fri 07:49:56 AM 38.6570 6.1390 171° South 485 558 35,000  Level FlightAware ADS-B
Fri 07:50:55 AM 38.5420 6.1640 170° South 485 558 35,000  Level FlightAware ADS-B
Fri 07:51:43 AM 38.4310 6.1860 171° South 486 559 35,000  Level FlightAware ADS-B
Fri 07:52:31 AM 38.3400 6.2070 170° South 486 559 35,000  Level FlightAware ADS-B
Fri 07:53:11 AM 38.2220 6.2280 172° South 35,000  Level FlightAware ADS-B
Fri 07:54:03 AM 38.1220 6.2490 171° South 488 562 35,000  Level FlightAware ADS-B
Fri 07:54:51 AM 38.0320 6.2690 170° South 488 562 35,000  Level FlightAware ADS-B
Fri 07:55:27 AM 37.9640 6.2850 169° South 488 562 35,000  Level FlightAware ADS-B
Fri 07:56:15 AM 37.8730 6.3050 170° South 488 562 35,000  Level FlightAware ADS-B
Fri 07:56:51 AM 37.8050 6.3200 170° South 488 562 35,000  Level FlightAware ADS-B
Fri 07:57:39 AM 37.7140 6.3400 170° South 488 562 35,000  Level FlightAware ADS-B
Fri 07:58:15 AM 37.6460 6.3550 170° South 488 562 35,000  Level FlightAware ADS-B
Fri 07:59:04 AM 37.5530 6.3760 170° South 488 562 35,000  Level FlightAware ADS-B
Fri 07:59:42 AM 37.4820 6.3920 170° South 488 562 35,000  Level FlightAware ADS-B
Fri 08:01:00 AM 37.3340 6.4250 170° South 488 562 35,000  Level FlightAware ADS-B
Fri 08:01:37 AM 37.2640 6.4400 170° South 488 562 35,000  Level FlightAware ADS-B
Fri 08:02:37 AM 37.1510 6.4650 170° South 488 562 35,000  Level FlightAware ADS-B
Fri 08:03:26 AM 37.0580 6.4860 170° South 488 562 35,000  Level FlightAware ADS-B
Fri 08:06:00 AM 36.7501 6.4970 178° South  Level Estimated
Fri 08:07:00 AM 36.6301 6.5012 178° South  Level Estimated
Fri 08:08:00 AM 36.5101 6.5054 178° South  Level Estimated
Fri 08:09:00 AM 36.3902 6.5096 178° South  Level Estimated
Fri 08:10:00 AM 36.2702 6.5138 178° South  Level Estimated
Fri 08:11:00 AM 36.1502 6.5180 178° South  Level Estimated
Fri 08:12:00 AM 36.0303 6.5222 178° South  Level Estimated
Fri 08:13:00 AM 35.9103 6.5264 178° South  Level Estimated
Fri 08:14:00 AM 35.7903 6.5305 178° South  Level Estimated
Fri 08:15:00 AM 35.6703 6.5347 178° South  Level Estimated
Fri 08:16:00 AM 35.5504 6.5388 178° South  Level Estimated
Fri 08:17:00 AM 35.4304 6.5429 178° South  Level Estimated
Fri 08:18:00 AM 35.3104 6.5470 178° South  Level Estimated
Fri 08:19:00 AM 35.1905 6.5511 178° South  Level Estimated
Fri 08:20:00 AM 35.0705 6.5552 178° South  Level Estimated
Fri 08:21:00 AM 34.9505 6.5592 178° South  Level Estimated
Fri 08:22:00 AM 34.8306 6.5633 178° South  Level Estimated
Fri 08:23:00 AM 34.7106 6.5673 178° South  Level Estimated
Fri 08:24:00 AM 34.5906 6.5714 178° South  Level Estimated
Fri 08:25:00 AM 34.4706 6.5754 178° South  Level Estimated
Fri 08:26:00 AM 34.3507 6.5794 178° South  Level Estimated
Fri 08:27:00 AM 34.2307 6.5834 178° South  Level Estimated
Fri 08:28:00 AM 34.1107 6.5874 178° South  Level Estimated
Fri 08:29:00 AM 33.9907 6.5913 178° South  Level Estimated
Fri 08:30:00 AM 33.8708 6.5953 178° South  Level Estimated
Fri 08:31:00 AM 33.7508 6.5992 178° South  Level Estimated
Fri 08:32:00 AM 33.6308 6.6032 178° South  Level Estimated
Fri 08:33:00 AM 33.5108 6.6071 178° South  Level Estimated
Fri 08:34:00 AM 33.3908 6.6110 178° South  Level Estimated
Fri 08:35:00 AM 33.2709 6.6150 178° South  Level Estimated
Fri 08:36:00 AM 33.1509 6.6189 178° South  Level Estimated
Fri 08:37:00 AM 33.0309 6.6227 178° South  Level Estimated
Fri 08:38:00 AM 32.9109 6.6266 178° South  Level Estimated
Fri 08:39:00 AM 32.7909 6.6305 178° South  Level Estimated
Fri 08:40:00 AM 32.6710 6.6343 178° South  Level Estimated
Fri 08:41:00 AM 32.5510 6.6382 178° South  Level Estimated
Fri 08:42:00 AM 32.4310 6.6420 178° South  Level Estimated
Fri 08:43:00 AM 32.3110 6.6458 178° South  Level Estimated
Fri 08:44:00 AM 32.1910 6.6496 178° South  Level Estimated
Fri 08:45:00 AM 32.0711 6.6534 178° South  Level Estimated
Fri 08:46:00 AM 31.9511 6.6572 178° South  Level Estimated
Fri 08:47:00 AM 31.8311 6.6610 178° South  Level Estimated
Fri 08:48:00 AM 31.7111 6.6648 178° South  Level Estimated
Fri 08:49:00 AM 31.5911 6.6685 178° South  Level Estimated
Fri 08:50:00 AM 31.4712 6.6723 178° South  Level Estimated
Fri 08:51:00 AM 31.3512 6.6760 178° South  Level Estimated
Fri 08:52:00 AM 31.2312 6.6798 178° South  Level Estimated
Fri 08:53:00 AM 31.1112 6.6835 178° South  Level Estimated
Fri 08:54:00 AM 30.9912 6.6872 178° South  Level Estimated
Fri 08:55:00 AM 30.8713 6.6909 178° South  Level Estimated
Fri 08:56:00 AM 30.7513 6.6946 178° South  Level Estimated
Fri 08:57:00 AM 30.6313 6.6983 178° South  Level Estimated
Fri 08:58:00 AM 30.5113 6.7020 178° South  Level Estimated
Fri 08:59:00 AM 30.3913 6.7057 178° South  Level Estimated
Fri 09:00:00 AM 30.2714 6.7093 178° South  Level Estimated
Fri 09:01:00 AM 30.1514 6.7130 178° South  Level Estimated
Fri 09:02:00 AM 30.0314 6.7166 178° South  Level Estimated
Fri 09:03:00 AM 29.9114 6.7203 178° South  Level Estimated
Fri 09:04:00 AM 29.7914 6.7239 178° South  Level Estimated
Fri 09:05:00 AM 29.6715 6.7275 178° South  Level Estimated
Fri 09:06:00 AM 29.5515 6.7311 179° South  Level Estimated
Fri 09:07:00 AM 29.4315 6.7347 179° South  Level Estimated
Fri 09:08:00 AM 29.3115 6.7383 179° South  Level Estimated
Fri 09:09:00 AM 29.1915 6.7419 179° South  Level Estimated
Fri 09:10:00 AM 29.0716 6.7455 179° South  Level Estimated
Fri 09:11:00 AM 28.9516 6.7491 179° South  Level Estimated
Fri 09:12:00 AM 28.8316 6.7526 179° South  Level Estimated
Fri 09:13:00 AM 28.7116 6.7562 179° South  Level Estimated
Fri 09:14:00 AM 28.5916 6.7597 179° South  Level Estimated
Fri 09:15:00 AM 28.4717 6.7632 179° South  Level Estimated
Fri 09:16:00 AM 28.3517 6.7668 179° South  Level Estimated
Fri 09:17:00 AM 28.2317 6.7703 179° South  Level Estimated
Fri 09:18:00 AM 28.1117 6.7738 179° South  Level Estimated
Fri 09:19:00 AM 27.9917 6.7773 179° South  Level Estimated
Fri 09:20:00 AM 27.8718 6.7808 179° South  Level Estimated
Fri 09:21:00 AM 27.7518 6.7843 179° South  Level Estimated
Fri 09:22:00 AM 27.6318 6.7877 179° South  Level Estimated
Fri 09:23:00 AM 27.5118 6.7912 179° South  Level Estimated
Fri 09:24:00 AM 27.3918 6.7947 179° South  Level Estimated
Fri 09:25:00 AM 27.2719 6.7981 179° South  Level Estimated
Fri 09:26:00 AM 27.1519 6.8016 179° South  Level Estimated
Fri 09:27:00 AM 27.0319 6.8050 179° South  Level Estimated
Fri 09:28:00 AM 26.9119 6.8085 179° South  Level Estimated
Fri 09:29:00 AM 26.7919 6.8119 179° South  Level Estimated
Fri 09:30:00 AM 26.6720 6.8153 179° South  Level Estimated
Fri 09:31:00 AM 26.5520 6.8187 179° South  Level Estimated
Fri 09:32:00 AM 26.4320 6.8221 179° South  Level Estimated
Fri 09:33:00 AM 26.3120 6.8255 179° South  Level Estimated
Fri 09:34:00 AM 26.1920 6.8289 179° South  Level Estimated
Fri 09:35:00 AM 26.0721 6.8323 179° South  Level Estimated
Fri 09:36:00 AM 25.9521 6.8357 179° South  Level Estimated
Fri 09:37:00 AM 25.8321 6.8390 179° South  Level Estimated
Fri 09:38:00 AM 25.7121 6.8424 179° South  Level Estimated
Fri 09:39:00 AM 25.5921 6.8458 179° South  Level Estimated
Fri 09:40:00 AM 25.4722 6.8491 179° South  Level Estimated
Fri 09:41:00 AM 25.3522 6.8525 179° South  Level Estimated
Fri 09:42:00 AM 25.2322 6.8558 179° South  Level Estimated
Fri 09:43:00 AM 25.1122 6.8591 179° South  Level Estimated
Fri 09:44:00 AM 24.9922 6.8625 179° South  Level Estimated
Fri 09:45:00 AM 24.8723 6.8658 179° South  Level Estimated
Fri 09:46:00 AM 24.7523 6.8691 179° South  Level Estimated
Fri 09:47:00 AM 24.6323 6.8724 179° South  Level Estimated
Fri 09:48:00 AM 24.5123 6.8757 179° South  Level Estimated
Fri 09:49:00 AM 24.3923 6.8790 179° South  Level Estimated
Fri 09:50:00 AM 24.2724 6.8823 179° South  Level Estimated
Fri 09:51:00 AM 24.1524 6.8855 179° South  Level Estimated
Fri 09:52:00 AM 24.0324 6.8888 179° South  Level Estimated
Fri 09:53:00 AM 23.9124 6.8921 179° South  Level Estimated
Fri 09:54:00 AM 23.7924 6.8953 179° South  Level Estimated
Fri 09:55:00 AM 23.6725 6.8986 179° South  Level Estimated
Fri 09:56:00 AM 23.5525 6.9019 179° South  Level Estimated
Fri 09:57:00 AM 23.4325 6.9051 179° South  Level Estimated
Fri 09:58:00 AM 23.3125 6.9083 179° South  Level Estimated
Fri 09:59:00 AM 23.1925 6.9116 179° South  Level Estimated
Fri 10:00:00 AM 23.0726 6.9148 179° South  Level Estimated
Fri 10:01:00 AM 22.9526 6.9180 179° South  Level Estimated
Fri 10:02:00 AM 22.8326 6.9212 179° South  Level Estimated
Fri 10:03:00 AM 22.7126 6.9244 179° South  Level Estimated
Fri 10:04:00 AM 22.5926 6.9276 179° South  Level Estimated
Fri 10:05:00 AM 22.4727 6.9308 179° South  Level Estimated
Fri 10:06:00 AM 22.3527 6.9340 179° South  Level Estimated
Fri 10:07:00 AM 22.2327 6.9372 179° South  Level Estimated
Fri 10:08:00 AM 22.1127 6.9404 179° South  Level Estimated
Fri 10:09:00 AM 21.9927 6.9436 179° South  Level Estimated
Fri 10:10:00 AM 21.8728 6.9467 179° South  Level Estimated
Fri 10:11:00 AM 21.7528 6.9499 179° South  Level Estimated
Fri 10:12:00 AM 21.6328 6.9531 179° South  Level Estimated
Fri 10:13:00 AM 21.5128 6.9562 179° South  Level Estimated
Fri 10:14:00 AM 21.3928 6.9594 179° South  Level Estimated
Fri 10:15:00 AM 21.2729 6.9625 179° South  Level Estimated
Fri 10:16:00 AM 21.1529 6.9656 179° South  Level Estimated
Fri 10:17:00 AM 21.0329 6.9688 179° South  Level Estimated
Fri 10:18:00 AM 20.9129 6.9719 179° South  Level Estimated
Fri 10:19:00 AM 20.7929 6.9750 179° South  Level Estimated
Fri 10:20:00 AM 20.6730 6.9781 179° South  Level Estimated
Fri 10:21:00 AM 20.5530 6.9812 179° South  Level Estimated
Fri 10:22:00 AM 20.4330 6.9844 179° South  Level Estimated
Fri 10:23:00 AM 20.3130 6.9875 179° South  Level Estimated
Fri 10:24:00 AM 20.1930 6.9906 179° South  Level Estimated
Fri 10:25:00 AM 20.0730 6.9936 179° South  Level Estimated
Fri 10:26:00 AM 19.9530 6.9967 179° South  Level Estimated
Fri 10:27:00 AM 19.8330 6.9998 179° South  Level Estimated
Fri 10:28:00 AM 19.7131 7.0029 179° South  Level Estimated
Fri 10:29:00 AM 19.5931 7.0060 179° South  Level Estimated
Fri 10:30:00 AM 19.4731 7.0091 179° South  Level Estimated
Fri 10:31:00 AM 19.3531 7.0121 179° South  Level Estimated
Fri 10:32:00 AM 19.2335 7.0152 179° South  Level Estimated
Fri 10:33:00 AM 19.1138 7.0182 179° South  Level Estimated
Fri 10:34:00 AM 18.9942 7.0213 179° South  Level Estimated
Fri 10:35:00 AM 18.8746 7.0243 179° South  Level Estimated
Fri 10:36:00 AM 18.7549 7.0273 179° South  Level Estimated
Fri 10:37:00 AM 18.6353 7.0304 179° South  Level Estimated
Fri 10:38:00 AM 18.5157 7.0334 179° South  Level Estimated
Fri 10:39:00 AM 18.3960 7.0364 179° South  Level Estimated
Fri 10:40:00 AM 18.2764 7.0395 179° South  Level Estimated
Fri 10:41:00 AM 18.1568 7.0425 179° South  Level Estimated
Fri 10:42:00 AM 18.0372 7.0455 179° South  Level Estimated
Fri 10:43:00 AM 17.9175 7.0485 179° South  Level Estimated
Fri 10:44:00 AM 17.7979 7.0515 179° South  Level Estimated
Fri 10:45:00 AM 17.6783 7.0545 179° South  Level Estimated
Fri 10:46:00 AM 17.5586 7.0575 179° South  Level Estimated
Fri 10:47:00 AM 17.4390 7.0605 179° South  Level Estimated
Fri 10:48:00 AM 17.3194 7.0634 179° South  Level Estimated
Fri 10:49:00 AM 17.1998 7.0664 179° South  Level Estimated
Fri 10:50:00 AM 17.0801 7.0694 179° South  Level Estimated
Fri 10:51:00 AM 16.9605 7.0724 179° South  Level Estimated
Fri 10:52:00 AM 16.8409 7.0753 179° South  Level Estimated
Fri 10:53:00 AM 16.7212 7.0783 179° South  Level Estimated
Fri 10:54:00 AM 16.6016 7.0813 179° South  Level Estimated
Fri 10:55:00 AM 16.4820 7.0842 179° South  Level Estimated
Fri 10:56:00 AM 16.3623 7.0872 179° South  Level Estimated
Fri 10:57:00 AM 16.2427 7.0901 179° South  Level Estimated
Fri 10:58:00 AM 16.1231 7.0931 179° South  Level Estimated
Fri 10:59:00 AM 16.0035 7.0960 179° South  Level Estimated
Fri 11:00:00 AM 15.8838 7.0990 179° South  Level Estimated
Fri 11:01:00 AM 15.7642 7.1019 179° South  Level Estimated
Fri 11:02:00 AM 15.6446 7.1049 179° South  Level Estimated
Fri 11:03:00 AM 15.5249 7.1078 179° South  Level Estimated
Fri 11:04:00 AM 15.4053 7.1107 179° South  Level Estimated
Fri 11:05:00 AM 15.2857 7.1136 179° South  Level Estimated
Fri 11:06:00 AM 15.1660 7.1166 179° South  Level Estimated
Fri 11:07:00 AM 15.0464 7.1195 179° South  Level Estimated
Fri 11:08:00 AM 14.9268 7.1224 179° South  Level Estimated
Fri 11:09:00 AM 14.8071 7.1253 179° South  Level Estimated
Fri 11:10:00 AM 14.6875 7.1282 179° South  Level Estimated
Fri 11:11:00 AM 14.5679 7.1311 179° South  Level Estimated
Fri 11:12:00 AM 14.4483 7.1340 179° South  Level Estimated
Fri 11:13:00 AM 14.3286 7.1369 179° South  Level Estimated
Fri 11:14:00 AM 14.2090 7.1398 179° South  Level Estimated
Fri 11:15:00 AM 14.0894 7.1427 179° South  Level Estimated
Fri 11:16:00 AM 13.9697 7.1456 179° South  Level Estimated
Fri 11:17:00 AM 13.8501 7.1485 179° South  Level Estimated
Fri 11:18:00 AM 13.7305 7.1514 179° South  Level Estimated
Fri 11:19:00 AM 13.6109 7.1543 179° South  Level Estimated
Fri 11:20:00 AM 13.4912 7.1571 179° South  Level Estimated
Fri 11:21:00 AM 13.3716 7.1600 179° South  Level Estimated
Fri 11:22:00 AM 13.2520 7.1629 179° South  Level Estimated
Fri 11:23:00 AM 13.1323 7.1657 179° South  Level Estimated
Fri 11:24:00 AM 13.0127 7.1686 179° South  Level Estimated
Fri 11:25:00 AM 12.8931 7.1715 179° South  Level Estimated
Fri 11:26:00 AM 12.7734 7.1743 179° South  Level Estimated
Fri 11:27:00 AM 12.6538 7.1772 179° South  Level Estimated
Fri 11:28:00 AM 12.5342 7.1800 179° South  Level Estimated
Fri 11:29:00 AM 12.4145 7.1829 179° South  Level Estimated
Fri 11:30:00 AM 12.2949 7.1858 179° South  Level Estimated
Fri 11:31:00 AM 12.1753 7.1886 179° South  Level Estimated
Fri 11:32:00 AM 12.0557 7.1915 179° South  Level Estimated
Fri 11:33:00 AM 11.9360 7.1943 179° South  Level Estimated
Fri 11:34:00 AM 11.8164 7.1971 179° South  Level Estimated
Fri 11:35:00 AM 11.6968 7.2000 179° South  Level Estimated
Fri 11:36:00 AM 11.5771 7.2028 179° South  Level Estimated
Fri 11:37:00 AM 11.4575 7.2056 179° South  Level Estimated
Fri 11:38:00 AM 11.3379 7.2085 179° South  Level Estimated
Fri 11:39:00 AM 11.2183 7.2113 179° South  Level Estimated
Fri 11:40:00 AM 11.0986 7.2141 179° South  Level Estimated
Fri 11:41:00 AM 10.9790 7.2169 179° South  Level Estimated
Fri 11:42:00 AM 10.8594 7.2198 179° South  Level Estimated
Fri 11:43:00 AM 10.7401 7.2226 179° South  Level Estimated
Fri 11:44:00 AM 10.6208 7.2254 179° South  Level Estimated
Fri 11:45:00 AM 10.5015 7.2282 179° South  Level Estimated
Fri 11:46:00 AM 10.3822 7.2310 179° South  Level Estimated
Fri 11:47:00 AM 10.2630 7.2338 179° South  Level Estimated
Fri 11:48:00 AM 10.1437 7.2366 179° South  Level Estimated
Fri 11:49:00 AM 10.0244 7.2394 179° South  Level Estimated

Login

Don't have an account? Register now (free) for customized features, flight alerts, and more!